sensor_id;sensor_type;location;lat;lon;timestamp;P1;durP1;ratioP1;P2;durP2;ratioP2
75064;SDS011;63646;49.110;9.140;2022-11-20T00:02:21;8.73;;;3.88;;
75064;SDS011;63646;49.110;9.140;2022-11-20T00:04:47;9.03;;;3.77;;
75064;SDS011;63646;49.110;9.140;2022-11-20T00:07:12;8.95;;;3.88;;
75064;SDS011;63646;49.110;9.140;2022-11-20T00:09:38;9.32;;;3.55;;
75064;SDS011;63646;49.110;9.140;2022-11-20T00:12:03;9.05;;;3.85;;
75064;SDS011;63646;49.110;9.140;2022-11-20T00:14:29;8.77;;;3.53;;
75064;SDS011;63646;49.110;9.140;2022-11-20T00:16:54;10.65;;;4.40;;
75064;SDS011;63646;49.110;9.140;2022-11-20T00:19:19;10.80;;;3.65;;
75064;SDS011;63646;49.110;9.140;2022-11-20T00:21:45;8.10;;;3.47;;
75064;SDS011;63646;49.110;9.140;2022-11-20T00:24:10;12.50;;;3.85;;
75064;SDS011;63646;49.110;9.140;2022-11-20T00:26:36;9.07;;;3.83;;
75064;SDS011;63646;49.110;9.140;2022-11-20T00:29:02;8.55;;;3.63;;
75064;SDS011;63646;49.110;9.140;2022-11-20T00:31:28;8.43;;;4.18;;
75064;SDS011;63646;49.110;9.140;2022-11-20T00:33:54;7.32;;;3.75;;
75064;SDS011;63646;49.110;9.140;2022-11-20T00:36:21;7.75;;;3.55;;
75064;SDS011;63646;49.110;9.140;2022-11-20T00:38:51;6.80;;;3.20;;
75064;SDS011;63646;49.110;9.140;2022-11-20T00:41:20;8.07;;;3.67;;
75064;SDS011;63646;49.110;9.140;2022-11-20T00:43:46;6.85;;;3.90;;
75064;SDS011;63646;49.110;9.140;2022-11-20T00:46:13;8.95;;;3.78;;
75064;SDS011;63646;49.110;9.140;2022-11-20T00:48:43;8.90;;;3.45;;
75064;SDS011;63646;49.110;9.140;2022-11-20T00:51:10;7.20;;;3.50;;
75064;SDS011;63646;49.110;9.140;2022-11-20T00:53:37;8.48;;;3.65;;
75064;SDS011;63646;49.110;9.140;2022-11-20T00:56:04;6.13;;;3.28;;
75064;SDS011;63646;49.110;9.140;2022-11-20T00:58:36;7.28;;;3.22;;
75064;SDS011;63646;49.110;9.140;2022-11-20T01:01:06;7.13;;;3.35;;
75064;SDS011;63646;49.110;9.140;2022-11-20T01:03:40;9.77;;;3.55;;
75064;SDS011;63646;49.110;9.140;2022-11-20T01:08:41;6.13;;;3.45;;
75064;SDS011;63646;49.110;9.140;2022-11-20T01:11:07;7.47;;;3.63;;
75064;SDS011;63646;49.110;9.140;2022-11-20T01:13:36;5.95;;;3.45;;
75064;SDS011;63646;49.110;9.140;2022-11-20T01:16:09;6.47;;;3.15;;
75064;SDS011;63646;49.110;9.140;2022-11-20T01:18:36;7.90;;;3.30;;
75064;SDS011;63646;49.110;9.140;2022-11-20T01:21:07;7.05;;;3.45;;
75064;SDS011;63646;49.110;9.140;2022-11-20T01:23:36;6.55;;;3.38;;
75064;SDS011;63646;49.110;9.140;2022-11-20T01:26:04;7.30;;;3.65;;
75064;SDS011;63646;49.110;9.140;2022-11-20T01:28:32;8.82;;;3.58;;
75064;SDS011;63646;49.110;9.140;2022-11-20T01:30:58;6.70;;;3.53;;
75064;SDS011;63646;49.110;9.140;2022-11-20T01:33:24;6.82;;;3.22;;
75064;SDS011;63646;49.110;9.140;2022-11-20T01:35:49;6.80;;;3.67;;
75064;SDS011;63646;49.110;9.140;2022-11-20T01:38:16;8.25;;;3.95;;
75064;SDS011;63646;49.110;9.140;2022-11-20T01:40:41;6.78;;;3.03;;
75064;SDS011;63646;49.110;9.140;2022-11-20T01:43:13;7.43;;;3.45;;
75064;SDS011;63646;49.110;9.140;2022-11-20T01:45:52;6.38;;;3.42;;
75064;SDS011;63646;49.110;9.140;2022-11-20T01:48:24;5.70;;;2.92;;
75064;SDS011;63646;49.110;9.140;2022-11-20T01:50:53;5.25;;;3.10;;
75064;SDS011;63646;49.110;9.140;2022-11-20T01:53:20;5.63;;;3.05;;
75064;SDS011;63646;49.110;9.140;2022-11-20T01:55:49;6.28;;;3.00;;
75064;SDS011;63646;49.110;9.140;2022-11-20T01:58:19;6.28;;;3.10;;
75064;SDS011;63646;49.110;9.140;2022-11-20T02:00:49;8.15;;;3.50;;
75064;SDS011;63646;49.110;9.140;2022-11-20T02:03:15;7.32;;;3.08;;
75064;SDS011;63646;49.110;9.140;2022-11-20T02:08:12;7.57;;;3.28;;
75064;SDS011;63646;49.110;9.140;2022-11-20T02:10:37;6.45;;;3.65;;
75064;SDS011;63646;49.110;9.140;2022-11-20T02:13:03;7.13;;;3.88;;
75064;SDS011;63646;49.110;9.140;2022-11-20T02:15:47;5.80;;;3.42;;
75064;SDS011;63646;49.110;9.140;2022-11-20T02:18:14;6.90;;;3.60;;
75064;SDS011;63646;49.110;9.140;2022-11-20T02:20:42;6.18;;;3.55;;
75064;SDS011;63646;49.110;9.140;2022-11-20T02:26:04;5.68;;;2.88;;
75064;SDS011;63646;49.110;9.140;2022-11-20T02:28:34;6.47;;;3.35;;
75064;SDS011;63646;49.110;9.140;2022-11-20T02:31:00;6.30;;;2.60;;
75064;SDS011;63646;49.110;9.140;2022-11-20T02:33:25;6.32;;;2.88;;
75064;SDS011;63646;49.110;9.140;2022-11-20T02:35:51;6.13;;;3.17;;
75064;SDS011;63646;49.110;9.140;2022-11-20T02:38:16;7.03;;;3.17;;
75064;SDS011;63646;49.110;9.140;2022-11-20T02:40:42;6.93;;;3.42;;
75064;SDS011;63646;49.110;9.140;2022-11-20T02:43:08;6.30;;;3.08;;
75064;SDS011;63646;49.110;9.140;2022-11-20T02:45:34;4.15;;;2.70;;
75064;SDS011;63646;49.110;9.140;2022-11-20T02:47:59;5.32;;;2.95;;
75064;SDS011;63646;49.110;9.140;2022-11-20T02:50:25;5.97;;;2.78;;
75064;SDS011;63646;49.110;9.140;2022-11-20T02:52:50;5.85;;;3.10;;
75064;SDS011;63646;49.110;9.140;2022-11-20T02:55:16;5.35;;;3.03;;
75064;SDS011;63646;49.110;9.140;2022-11-20T02:57:41;5.55;;;2.88;;
75064;SDS011;63646;49.110;9.140;2022-11-20T03:00:07;4.97;;;3.00;;
75064;SDS011;63646;49.110;9.140;2022-11-20T03:02:33;5.90;;;2.90;;
75064;SDS011;63646;49.110;9.140;2022-11-20T03:04:58;6.22;;;3.35;;
75064;SDS011;63646;49.110;9.140;2022-11-20T03:07:24;4.97;;;3.03;;
75064;SDS011;63646;49.110;9.140;2022-11-20T03:09:49;5.82;;;3.15;;
75064;SDS011;63646;49.110;9.140;2022-11-20T03:12:15;6.20;;;3.10;;
75064;SDS011;63646;49.110;9.140;2022-11-20T03:14:40;5.45;;;3.03;;
75064;SDS011;63646;49.110;9.140;2022-11-20T03:17:05;6.20;;;2.83;;
75064;SDS011;63646;49.110;9.140;2022-11-20T03:19:31;6.55;;;3.20;;
75064;SDS011;63646;49.110;9.140;2022-11-20T03:21:56;4.18;;;2.92;;
75064;SDS011;63646;49.110;9.140;2022-11-20T03:24:22;4.97;;;2.80;;
75064;SDS011;63646;49.110;9.140;2022-11-20T03:26:47;6.60;;;3.00;;
75064;SDS011;63646;49.110;9.140;2022-11-20T03:29:12;5.80;;;2.97;;
75064;SDS011;63646;49.110;9.140;2022-11-20T03:31:38;5.33;;;2.80;;
75064;SDS011;63646;49.110;9.140;2022-11-20T03:34:06;4.35;;;2.53;;
75064;SDS011;63646;49.110;9.140;2022-11-20T03:36:32;4.45;;;2.60;;
75064;SDS011;63646;49.110;9.140;2022-11-20T03:38:57;4.07;;;2.38;;
75064;SDS011;63646;49.110;9.140;2022-11-20T03:41:24;4.00;;;2.60;;
75064;SDS011;63646;49.110;9.140;2022-11-20T03:43:52;6.60;;;2.85;;
75064;SDS011;63646;49.110;9.140;2022-11-20T03:46:19;4.30;;;2.75;;
75064;SDS011;63646;49.110;9.140;2022-11-20T03:48:45;4.30;;;3.03;;
75064;SDS011;63646;49.110;9.140;2022-11-20T03:51:13;5.10;;;2.63;;
75064;SDS011;63646;49.110;9.140;2022-11-20T03:53:40;4.28;;;2.60;;
75064;SDS011;63646;49.110;9.140;2022-11-20T03:58:32;6.72;;;3.05;;
75064;SDS011;63646;49.110;9.140;2022-11-20T04:01:04;5.22;;;2.65;;
75064;SDS011;63646;49.110;9.140;2022-11-20T04:03:34;5.30;;;2.80;;
75064;SDS011;63646;49.110;9.140;2022-11-20T04:06:08;4.35;;;2.50;;
75064;SDS011;63646;49.110;9.140;2022-11-20T04:08:41;5.68;;;2.90;;
75064;SDS011;63646;49.110;9.140;2022-11-20T04:13:40;3.92;;;2.75;;
75064;SDS011;63646;49.110;9.140;2022-11-20T04:16:07;5.05;;;2.65;;
75064;SDS011;63646;49.110;9.140;2022-11-20T04:18:33;5.28;;;2.53;;
75064;SDS011;63646;49.110;9.140;2022-11-20T04:20:59;4.40;;;2.47;;
75064;SDS011;63646;49.110;9.140;2022-11-20T04:23:25;4.47;;;2.70;;
75064;SDS011;63646;49.110;9.140;2022-11-20T04:25:51;5.78;;;2.90;;
75064;SDS011;63646;49.110;9.140;2022-11-20T04:28:16;5.13;;;2.67;;
75064;SDS011;63646;49.110;9.140;2022-11-20T04:30:42;5.45;;;3.17;;
75064;SDS011;63646;49.110;9.140;2022-11-20T04:33:07;4.68;;;2.50;;
75064;SDS011;63646;49.110;9.140;2022-11-20T04:35:36;4.80;;;2.67;;
75064;SDS011;63646;49.110;9.140;2022-11-20T04:38:02;4.68;;;2.83;;
75064;SDS011;63646;49.110;9.140;2022-11-20T04:40:27;3.63;;;2.63;;
75064;SDS011;63646;49.110;9.140;2022-11-20T04:42:53;4.60;;;2.40;;
75064;SDS011;63646;49.110;9.140;2022-11-20T04:45:19;5.15;;;2.90;;
75064;SDS011;63646;49.110;9.140;2022-11-20T04:47:44;4.40;;;2.60;;
75064;SDS011;63646;49.110;9.140;2022-11-20T04:50:10;4.80;;;2.75;;
75064;SDS011;63646;49.110;9.140;2022-11-20T04:52:36;4.18;;;2.20;;
75064;SDS011;63646;49.110;9.140;2022-11-20T04:55:01;4.23;;;2.50;;
75064;SDS011;63646;49.110;9.140;2022-11-20T04:57:26;5.30;;;2.60;;
75064;SDS011;63646;49.110;9.140;2022-11-20T04:59:51;4.03;;;2.40;;
75064;SDS011;63646;49.110;9.140;2022-11-20T05:02:17;4.60;;;2.50;;
75064;SDS011;63646;49.110;9.140;2022-11-20T05:04:42;5.53;;;2.58;;
75064;SDS011;63646;49.110;9.140;2022-11-20T05:07:08;3.40;;;2.20;;
75064;SDS011;63646;49.110;9.140;2022-11-20T05:09:33;3.43;;;2.20;;
75064;SDS011;63646;49.110;9.140;2022-11-20T05:11:58;4.47;;;2.57;;
75064;SDS011;63646;49.110;9.140;2022-11-20T05:14:24;3.08;;;2.17;;
75064;SDS011;63646;49.110;9.140;2022-11-20T05:16:49;4.93;;;2.58;;
75064;SDS011;63646;49.110;9.140;2022-11-20T05:19:15;3.28;;;2.42;;
75064;SDS011;63646;49.110;9.140;2022-11-20T05:21:40;3.97;;;2.75;;
75064;SDS011;63646;49.110;9.140;2022-11-20T05:24:05;3.92;;;2.50;;
75064;SDS011;63646;49.110;9.140;2022-11-20T05:26:32;4.47;;;2.65;;
75064;SDS011;63646;49.110;9.140;2022-11-20T05:28:57;5.22;;;2.60;;
75064;SDS011;63646;49.110;9.140;2022-11-20T05:31:23;4.28;;;2.47;;
75064;SDS011;63646;49.110;9.140;2022-11-20T05:33:49;3.83;;;2.92;;
75064;SDS011;63646;49.110;9.140;2022-11-20T05:36:15;5.18;;;2.33;;
75064;SDS011;63646;49.110;9.140;2022-11-20T05:38:41;4.97;;;2.60;;
75064;SDS011;63646;49.110;9.140;2022-11-20T05:41:09;3.13;;;2.17;;
75064;SDS011;63646;49.110;9.140;2022-11-20T05:43:39;5.13;;;2.53;;
75064;SDS011;63646;49.110;9.140;2022-11-20T05:46:07;3.08;;;2.55;;
75064;SDS011;63646;49.110;9.140;2022-11-20T05:48:34;4.40;;;2.20;;
75064;SDS011;63646;49.110;9.140;2022-11-20T05:51:00;5.88;;;2.42;;
75064;SDS011;63646;49.110;9.140;2022-11-20T05:53:27;5.38;;;2.47;;
75064;SDS011;63646;49.110;9.140;2022-11-20T05:55:56;5.45;;;2.85;;
75064;SDS011;63646;49.110;9.140;2022-11-20T05:58:42;3.78;;;2.22;;
75064;SDS011;63646;49.110;9.140;2022-11-20T06:01:09;6.55;;;2.20;;
75064;SDS011;63646;49.110;9.140;2022-11-20T06:03:39;3.88;;;2.60;;
75064;SDS011;63646;49.110;9.140;2022-11-20T06:06:07;4.70;;;2.20;;
75064;SDS011;63646;49.110;9.140;2022-11-20T06:08:33;5.57;;;2.75;;
75064;SDS011;63646;49.110;9.140;2022-11-20T06:11:02;4.07;;;2.15;;
75064;SDS011;63646;49.110;9.140;2022-11-20T06:13:28;4.38;;;2.15;;
75064;SDS011;63646;49.110;9.140;2022-11-20T06:15:54;6.67;;;2.60;;
75064;SDS011;63646;49.110;9.140;2022-11-20T06:18:19;3.93;;;2.40;;
75064;SDS011;63646;49.110;9.140;2022-11-20T06:20:45;4.47;;;2.30;;
75064;SDS011;63646;49.110;9.140;2022-11-20T06:23:12;3.28;;;2.55;;
75064;SDS011;63646;49.110;9.140;2022-11-20T06:25:41;3.42;;;2.20;;
75064;SDS011;63646;49.110;9.140;2022-11-20T06:28:07;3.15;;;2.28;;
75064;SDS011;63646;49.110;9.140;2022-11-20T06:32:59;4.97;;;2.33;;
75064;SDS011;63646;49.110;9.140;2022-11-20T06:35:24;3.42;;;2.42;;
75064;SDS011;63646;49.110;9.140;2022-11-20T06:37:50;3.10;;;1.97;;
75064;SDS011;63646;49.110;9.140;2022-11-20T06:40:15;2.20;;;1.95;;
75064;SDS011;63646;49.110;9.140;2022-11-20T06:42:40;3.78;;;2.08;;
75064;SDS011;63646;49.110;9.140;2022-11-20T06:45:06;3.33;;;2.15;;
75064;SDS011;63646;49.110;9.140;2022-11-20T06:47:32;3.50;;;2.15;;
75064;SDS011;63646;49.110;9.140;2022-11-20T06:49:57;4.18;;;2.40;;
75064;SDS011;63646;49.110;9.140;2022-11-20T06:52:22;5.57;;;2.30;;
75064;SDS011;63646;49.110;9.140;2022-11-20T06:54:48;5.37;;;2.40;;
75064;SDS011;63646;49.110;9.140;2022-11-20T06:57:13;3.03;;;1.83;;
75064;SDS011;63646;49.110;9.140;2022-11-20T06:59:39;3.45;;;2.28;;
75064;SDS011;63646;49.110;9.140;2022-11-20T07:02:04;3.97;;;2.30;;
75064;SDS011;63646;49.110;9.140;2022-11-20T07:04:29;5.65;;;2.35;;
75064;SDS011;63646;49.110;9.140;2022-11-20T07:06:55;6.03;;;2.25;;
75064;SDS011;63646;49.110;9.140;2022-11-20T07:09:20;3.30;;;2.10;;
75064;SDS011;63646;49.110;9.140;2022-11-20T07:11:46;5.63;;;2.22;;
75064;SDS011;63646;49.110;9.140;2022-11-20T07:14:11;4.25;;;2.35;;
75064;SDS011;63646;49.110;9.140;2022-11-20T07:16:36;5.18;;;2.10;;
75064;SDS011;63646;49.110;9.140;2022-11-20T07:19:02;3.20;;;1.90;;
75064;SDS011;63646;49.110;9.140;2022-11-20T07:21:27;3.67;;;2.17;;
75064;SDS011;63646;49.110;9.140;2022-11-20T07:23:52;7.50;;;2.30;;
75064;SDS011;63646;49.110;9.140;2022-11-20T07:26:18;4.93;;;2.40;;
75064;SDS011;63646;49.110;9.140;2022-11-20T07:28:44;3.72;;;2.20;;
75064;SDS011;63646;49.110;9.140;2022-11-20T07:31:10;6.47;;;1.83;;
75064;SDS011;63646;49.110;9.140;2022-11-20T07:33:37;8.75;;;2.30;;
75064;SDS011;63646;49.110;9.140;2022-11-20T07:36:02;6.15;;;2.10;;
75064;SDS011;63646;49.110;9.140;2022-11-20T07:38:28;5.43;;;2.38;;
75064;SDS011;63646;49.110;9.140;2022-11-20T07:40:54;5.72;;;2.25;;
75064;SDS011;63646;49.110;9.140;2022-11-20T07:43:21;3.65;;;2.05;;
75064;SDS011;63646;49.110;9.140;2022-11-20T07:45:46;2.77;;;2.00;;
75064;SDS011;63646;49.110;9.140;2022-11-20T07:48:11;4.90;;;2.00;;
75064;SDS011;63646;49.110;9.140;2022-11-20T07:50:37;5.30;;;2.07;;
75064;SDS011;63646;49.110;9.140;2022-11-20T07:53:05;11.20;;;2.47;;
75064;SDS011;63646;49.110;9.140;2022-11-20T07:55:31;7.35;;;2.30;;
75064;SDS011;63646;49.110;9.140;2022-11-20T07:57:57;6.40;;;2.30;;
75064;SDS011;63646;49.110;9.140;2022-11-20T08:00:23;8.55;;;2.30;;
75064;SDS011;63646;49.110;9.140;2022-11-20T08:02:49;7.35;;;2.35;;
75064;SDS011;63646;49.110;9.140;2022-11-20T08:05:15;9.55;;;2.47;;
75064;SDS011;63646;49.110;9.140;2022-11-20T08:07:42;10.85;;;2.75;;
75064;SDS011;63646;49.110;9.140;2022-11-20T08:10:09;13.00;;;2.30;;
75064;SDS011;63646;49.110;9.140;2022-11-20T08:12:36;15.40;;;2.78;;
75064;SDS011;63646;49.110;9.140;2022-11-20T08:15:30;5.70;;;2.40;;
75064;SDS011;63646;49.110;9.140;2022-11-20T08:18:03;9.25;;;2.90;;
75064;SDS011;63646;49.110;9.140;2022-11-20T08:20:33;7.68;;;1.90;;
75064;SDS011;63646;49.110;9.140;2022-11-20T08:23:06;5.25;;;2.25;;
75064;SDS011;63646;49.110;9.140;2022-11-20T08:25:32;9.25;;;2.38;;
75064;SDS011;63646;49.110;9.140;2022-11-20T08:28:03;7.80;;;2.50;;
75064;SDS011;63646;49.110;9.140;2022-11-20T08:30:30;14.13;;;3.03;;
75064;SDS011;63646;49.110;9.140;2022-11-20T08:33:00;6.78;;;2.20;;
75064;SDS011;63646;49.110;9.140;2022-11-20T08:35:27;6.85;;;2.22;;
75064;SDS011;63646;49.110;9.140;2022-11-20T08:37:52;13.73;;;2.17;;
75064;SDS011;63646;49.110;9.140;2022-11-20T08:40:17;5.97;;;2.17;;
75064;SDS011;63646;49.110;9.140;2022-11-20T08:42:49;20.87;;;2.60;;
75064;SDS011;63646;49.110;9.140;2022-11-20T08:45:16;8.27;;;2.63;;
75064;SDS011;63646;49.110;9.140;2022-11-20T08:50:12;10.18;;;2.38;;
75064;SDS011;63646;49.110;9.140;2022-11-20T08:52:39;3.72;;;1.95;;
75064;SDS011;63646;49.110;9.140;2022-11-20T08:55:04;6.68;;;2.30;;
75064;SDS011;63646;49.110;9.140;2022-11-20T08:57:31;9.20;;;2.40;;
75064;SDS011;63646;49.110;9.140;2022-11-20T08:59:57;4.68;;;2.00;;
75064;SDS011;63646;49.110;9.140;2022-11-20T09:02:23;4.03;;;2.00;;
75064;SDS011;63646;49.110;9.140;2022-11-20T09:04:48;6.30;;;2.20;;
75064;SDS011;63646;49.110;9.140;2022-11-20T09:07:14;6.63;;;2.38;;
75064;SDS011;63646;49.110;9.140;2022-11-20T09:09:39;5.37;;;1.90;;
75064;SDS011;63646;49.110;9.140;2022-11-20T09:12:04;3.90;;;2.00;;
75064;SDS011;63646;49.110;9.140;2022-11-20T09:14:30;4.35;;;2.13;;
75064;SDS011;63646;49.110;9.140;2022-11-20T09:16:56;5.00;;;1.98;;
75064;SDS011;63646;49.110;9.140;2022-11-20T09:19:23;3.72;;;1.88;;
75064;SDS011;63646;49.110;9.140;2022-11-20T09:21:49;7.28;;;2.25;;
75064;SDS011;63646;49.110;9.140;2022-11-20T09:24:15;3.15;;;1.80;;
75064;SDS011;63646;49.110;9.140;2022-11-20T09:26:40;4.95;;;2.00;;
75064;SDS011;63646;49.110;9.140;2022-11-20T09:29:05;8.73;;;2.20;;
75064;SDS011;63646;49.110;9.140;2022-11-20T09:31:31;7.57;;;2.77;;
75064;SDS011;63646;49.110;9.140;2022-11-20T09:33:56;3.75;;;1.80;;
75064;SDS011;63646;49.110;9.140;2022-11-20T09:36:22;8.88;;;1.95;;
75064;SDS011;63646;49.110;9.140;2022-11-20T09:38:47;4.85;;;2.10;;
75064;SDS011;63646;49.110;9.140;2022-11-20T09:47:36;7.22;;;2.17;;
75064;SDS011;63646;49.110;9.140;2022-11-20T09:54:56;5.57;;;1.83;;
75064;SDS011;63646;49.110;9.140;2022-11-20T09:57:23;4.63;;;1.98;;
75064;SDS011;63646;49.110;9.140;2022-11-20T09:59:56;6.38;;;2.08;;
75064;SDS011;63646;49.110;9.140;2022-11-20T10:10:30;3.47;;;2.05;;
75064;SDS011;63646;49.110;9.140;2022-11-20T10:15:49;5.18;;;2.30;;
75064;SDS011;63646;49.110;9.140;2022-11-20T10:26:24;5.68;;;1.92;;
75064;SDS011;63646;49.110;9.140;2022-11-20T10:29:15;5.07;;;2.00;;
75064;SDS011;63646;49.110;9.140;2022-11-20T10:31:48;1.83;;;1.50;;
75064;SDS011;63646;49.110;9.140;2022-11-20T10:36:52;3.95;;;1.80;;
75064;SDS011;63646;49.110;9.140;2022-11-20T10:39:33;3.40;;;2.03;;
75064;SDS011;63646;49.110;9.140;2022-11-20T10:42:08;3.47;;;1.77;;
75064;SDS011;63646;49.110;9.140;2022-11-20T10:44:39;3.15;;;1.83;;
75064;SDS011;63646;49.110;9.140;2022-11-20T10:47:39;4.10;;;1.90;;
75064;SDS011;63646;49.110;9.140;2022-11-20T10:50:05;2.77;;;1.90;;
75064;SDS011;63646;49.110;9.140;2022-11-20T10:55:43;4.47;;;1.92;;
75064;SDS011;63646;49.110;9.140;2022-11-20T10:58:21;5.93;;;1.88;;
75064;SDS011;63646;49.110;9.140;2022-11-20T11:01:03;4.22;;;1.60;;
75064;SDS011;63646;49.110;9.140;2022-11-20T11:03:39;4.40;;;1.92;;
75064;SDS011;63646;49.110;9.140;2022-11-20T11:06:22;6.15;;;2.65;;
75064;SDS011;63646;49.110;9.140;2022-11-20T11:08:58;3.58;;;2.00;;
75064;SDS011;63646;49.110;9.140;2022-11-20T11:11:27;6.63;;;1.88;;
75064;SDS011;63646;49.110;9.140;2022-11-20T11:14:05;4.43;;;2.00;;
75064;SDS011;63646;49.110;9.140;2022-11-20T11:16:35;3.95;;;2.15;;
75064;SDS011;63646;49.110;9.140;2022-11-20T11:19:07;4.60;;;1.80;;
75064;SDS011;63646;49.110;9.140;2022-11-20T11:21:37;3.75;;;1.83;;
75064;SDS011;63646;49.110;9.140;2022-11-20T11:24:14;3.25;;;1.70;;
75064;SDS011;63646;49.110;9.140;2022-11-20T11:29:32;5.05;;;1.90;;
75064;SDS011;63646;49.110;9.140;2022-11-20T11:32:08;3.00;;;1.60;;
75064;SDS011;63646;49.110;9.140;2022-11-20T11:34:37;4.38;;;1.60;;
75064;SDS011;63646;49.110;9.140;2022-11-20T11:37:03;5.75;;;1.90;;
75064;SDS011;63646;49.110;9.140;2022-11-20T11:39:30;4.90;;;1.92;;
75064;SDS011;63646;49.110;9.140;2022-11-20T11:41:58;5.40;;;1.92;;
75064;SDS011;63646;49.110;9.140;2022-11-20T11:44:27;6.95;;;1.83;;
75064;SDS011;63646;49.110;9.140;2022-11-20T11:49:48;3.92;;;1.65;;
75064;SDS011;63646;49.110;9.140;2022-11-20T11:52:17;5.30;;;1.97;;
75064;SDS011;63646;49.110;9.140;2022-11-20T11:54:57;7.35;;;1.90;;
75064;SDS011;63646;49.110;9.140;2022-11-20T12:00:10;6.30;;;1.95;;
75064;SDS011;63646;49.110;9.140;2022-11-20T12:07:47;4.68;;;2.17;;
75064;SDS011;63646;49.110;9.140;2022-11-20T12:15:58;8.98;;;4.60;;
75064;SDS011;63646;49.110;9.140;2022-11-20T12:18:25;18.00;;;4.85;;
75064;SDS011;63646;49.110;9.140;2022-11-20T12:20:59;11.63;;;5.07;;
75064;SDS011;63646;49.110;9.140;2022-11-20T12:39:42;11.82;;;3.60;;
75064;SDS011;63646;49.110;9.140;2022-11-20T12:58:39;6.95;;;3.00;;
75064;SDS011;63646;49.110;9.140;2022-11-20T13:07:00;14.32;;;3.28;;
75064;SDS011;63646;49.110;9.140;2022-11-20T13:09:28;11.23;;;2.78;;
75064;SDS011;63646;49.110;9.140;2022-11-20T13:19:52;6.15;;;2.17;;
75064;SDS011;63646;49.110;9.140;2022-11-20T13:22:26;5.93;;;2.05;;
75064;SDS011;63646;49.110;9.140;2022-11-20T13:24:53;9.02;;;2.22;;
75064;SDS011;63646;49.110;9.140;2022-11-20T13:27:20;6.60;;;2.08;;
75064;SDS011;63646;49.110;9.140;2022-11-20T13:41:01;3.88;;;2.35;;
75064;SDS011;63646;49.110;9.140;2022-11-20T13:43:46;5.50;;;1.65;;
75064;SDS011;63646;49.110;9.140;2022-11-20T13:46:13;10.45;;;2.10;;
75064;SDS011;63646;49.110;9.140;2022-11-20T13:48:41;6.50;;;2.20;;
75064;SDS011;63646;49.110;9.140;2022-11-20T13:56:24;4.80;;;2.03;;
75064;SDS011;63646;49.110;9.140;2022-11-20T14:01:45;5.13;;;2.10;;
75064;SDS011;63646;49.110;9.140;2022-11-20T14:06:45;9.88;;;1.92;;
75064;SDS011;63646;49.110;9.140;2022-11-20T14:09:34;7.10;;;2.20;;
75064;SDS011;63646;49.110;9.140;2022-11-20T14:12:00;3.53;;;1.73;;
75064;SDS011;63646;49.110;9.140;2022-11-20T14:14:30;7.93;;;2.15;;
75064;SDS011;63646;49.110;9.140;2022-11-20T14:19:58;3.05;;;1.75;;
75064;SDS011;63646;49.110;9.140;2022-11-20T14:22:28;3.03;;;1.67;;
75064;SDS011;63646;49.110;9.140;2022-11-20T14:25:01;4.60;;;1.73;;
75064;SDS011;63646;49.110;9.140;2022-11-20T14:27:27;6.80;;;2.17;;
75064;SDS011;63646;49.110;9.140;2022-11-20T14:29:53;4.45;;;2.00;;
75064;SDS011;63646;49.110;9.140;2022-11-20T14:32:19;5.43;;;1.70;;
75064;SDS011;63646;49.110;9.140;2022-11-20T14:34:47;2.63;;;1.80;;
75064;SDS011;63646;49.110;9.140;2022-11-20T14:37:21;5.43;;;2.00;;
75064;SDS011;63646;49.110;9.140;2022-11-20T14:39:53;3.38;;;1.90;;
75064;SDS011;63646;49.110;9.140;2022-11-20T14:44:44;8.10;;;2.10;;
75064;SDS011;63646;49.110;9.140;2022-11-20T14:47:12;5.50;;;1.88;;
75064;SDS011;63646;49.110;9.140;2022-11-20T14:49:40;7.88;;;2.10;;
75064;SDS011;63646;49.110;9.140;2022-11-20T14:52:18;4.45;;;1.90;;
75064;SDS011;63646;49.110;9.140;2022-11-20T14:54:46;3.10;;;1.90;;
75064;SDS011;63646;49.110;9.140;2022-11-20T14:57:31;5.68;;;2.20;;
75064;SDS011;63646;49.110;9.140;2022-11-20T15:02:33;7.47;;;1.98;;
75064;SDS011;63646;49.110;9.140;2022-11-20T15:05:00;4.93;;;1.85;;
75064;SDS011;63646;49.110;9.140;2022-11-20T15:12:54;6.32;;;2.15;;
75064;SDS011;63646;49.110;9.140;2022-11-20T15:15:27;7.32;;;2.15;;
75064;SDS011;63646;49.110;9.140;2022-11-20T15:17:56;4.95;;;2.15;;
75064;SDS011;63646;49.110;9.140;2022-11-20T15:20:24;6.75;;;2.03;;
75064;SDS011;63646;49.110;9.140;2022-11-20T15:22:52;4.43;;;1.73;;
75064;SDS011;63646;49.110;9.140;2022-11-20T15:25:18;7.10;;;2.13;;
75064;SDS011;63646;49.110;9.140;2022-11-20T15:27:44;4.00;;;1.83;;
75064;SDS011;63646;49.110;9.140;2022-11-20T15:30:14;6.03;;;2.13;;
75064;SDS011;63646;49.110;9.140;2022-11-20T15:32:41;6.95;;;2.00;;
75064;SDS011;63646;49.110;9.140;2022-11-20T15:35:07;6.65;;;2.10;;
75064;SDS011;63646;49.110;9.140;2022-11-20T15:37:33;4.32;;;1.77;;
75064;SDS011;63646;49.110;9.140;2022-11-20T15:39:58;3.85;;;1.75;;
75064;SDS011;63646;49.110;9.140;2022-11-20T15:42:24;3.35;;;1.80;;
75064;SDS011;63646;49.110;9.140;2022-11-20T15:44:49;3.92;;;1.90;;
75064;SDS011;63646;49.110;9.140;2022-11-20T15:47:14;5.53;;;2.00;;
75064;SDS011;63646;49.110;9.140;2022-11-20T15:49:42;5.95;;;2.08;;
75064;SDS011;63646;49.110;9.140;2022-11-20T15:52:08;4.22;;;2.22;;
75064;SDS011;63646;49.110;9.140;2022-11-20T15:54:34;3.67;;;2.20;;
75064;SDS011;63646;49.110;9.140;2022-11-20T15:56:59;5.20;;;2.40;;
75064;SDS011;63646;49.110;9.140;2022-11-20T15:59:25;4.13;;;1.90;;
75064;SDS011;63646;49.110;9.140;2022-11-20T16:01:52;4.38;;;2.08;;
75064;SDS011;63646;49.110;9.140;2022-11-20T16:04:18;6.57;;;2.03;;
75064;SDS011;63646;49.110;9.140;2022-11-20T16:06:43;6.32;;;1.90;;
75064;SDS011;63646;49.110;9.140;2022-11-20T16:09:09;4.80;;;1.92;;
75064;SDS011;63646;49.110;9.140;2022-11-20T16:11:34;6.28;;;1.98;;
75064;SDS011;63646;49.110;9.140;2022-11-20T16:14:01;2.53;;;1.98;;
75064;SDS011;63646;49.110;9.140;2022-11-20T16:16:46;3.17;;;1.90;;
75064;SDS011;63646;49.110;9.140;2022-11-20T16:19:12;3.72;;;1.58;;
75064;SDS011;63646;49.110;9.140;2022-11-20T16:21:38;3.20;;;1.80;;
75064;SDS011;63646;49.110;9.140;2022-11-20T16:24:06;6.50;;;2.17;;
75064;SDS011;63646;49.110;9.140;2022-11-20T16:26:34;5.00;;;1.75;;
75064;SDS011;63646;49.110;9.140;2022-11-20T16:29:00;6.80;;;2.20;;
75064;SDS011;63646;49.110;9.140;2022-11-20T16:31:27;4.70;;;2.00;;
75064;SDS011;63646;49.110;9.140;2022-11-20T16:33:54;2.67;;;1.70;;
75064;SDS011;63646;49.110;9.140;2022-11-20T16:36:22;4.35;;;1.92;;
75064;SDS011;63646;49.110;9.140;2022-11-20T16:38:55;4.47;;;2.00;;
75064;SDS011;63646;49.110;9.140;2022-11-20T16:41:22;3.55;;;1.70;;
75064;SDS011;63646;49.110;9.140;2022-11-20T16:43:54;3.05;;;1.48;;
75064;SDS011;63646;49.110;9.140;2022-11-20T16:46:24;4.85;;;2.45;;
75064;SDS011;63646;49.110;9.140;2022-11-20T16:51:23;4.93;;;1.88;;
75064;SDS011;63646;49.110;9.140;2022-11-20T16:53:50;4.03;;;2.00;;
75064;SDS011;63646;49.110;9.140;2022-11-20T16:56:18;3.15;;;1.60;;
75064;SDS011;63646;49.110;9.140;2022-11-20T16:58:45;5.60;;;1.55;;
75064;SDS011;63646;49.110;9.140;2022-11-20T17:01:14;3.83;;;1.77;;
75064;SDS011;63646;49.110;9.140;2022-11-20T17:03:41;2.63;;;1.65;;
75064;SDS011;63646;49.110;9.140;2022-11-20T17:08:40;3.03;;;1.67;;
75064;SDS011;63646;49.110;9.140;2022-11-20T17:11:07;7.97;;;2.13;;
75064;SDS011;63646;49.110;9.140;2022-11-20T17:13:33;5.30;;;1.75;;
75064;SDS011;63646;49.110;9.140;2022-11-20T17:16:07;5.80;;;2.00;;
75064;SDS011;63646;49.110;9.140;2022-11-20T17:18:35;6.72;;;1.88;;
75064;SDS011;63646;49.110;9.140;2022-11-20T17:21:00;7.10;;;1.88;;
75064;SDS011;63646;49.110;9.140;2022-11-20T17:23:37;5.07;;;2.08;;
75064;SDS011;63646;49.110;9.140;2022-11-20T17:26:05;4.93;;;1.80;;
75064;SDS011;63646;49.110;9.140;2022-11-20T17:28:35;9.95;;;2.10;;
75064;SDS011;63646;49.110;9.140;2022-11-20T17:31:02;8.13;;;2.30;;
75064;SDS011;63646;49.110;9.140;2022-11-20T17:33:29;9.55;;;2.15;;